createdAt,value
2018-02-22T00:02:27.177Z,33.53
2018-02-22T00:04:58.145Z,34.63
2018-02-22T00:07:29.228Z,35.65
2018-02-22T00:09:58.699Z,37.22
2018-02-22T00:12:28.363Z,35.67
2018-02-22T00:14:58.203Z,34.40
2018-02-22T00:17:28.563Z,32.88
2018-02-22T00:20:00.570Z,42.28
2018-02-22T00:22:35.020Z,50.53
2018-02-22T00:25:05.618Z,36.97
2018-02-22T00:27:35.121Z,34.95
2018-02-22T00:30:04.774Z,30.90
2018-02-22T00:32:38.266Z,33.35
2018-02-22T00:35:10.619Z,33.90
2018-02-22T00:37:40.203Z,41.65
2018-02-22T00:40:23.986Z,35.47
2018-02-22T00:42:53.510Z,33.53
2018-02-22T00:45:39.982Z,33.78
2018-02-22T00:48:24.448Z,35.80
2018-02-22T00:51:06.613Z,36.55
2018-02-22T00:53:36.380Z,32.63
2018-02-22T00:56:07.020Z,33.97
2018-02-22T00:58:45.641Z,34.60
2018-02-22T01:01:18.891Z,31.87
2018-02-22T01:03:52.558Z,34.55
2018-02-22T01:06:22.053Z,31.40
2018-02-22T01:08:54.911Z,35.58
2018-02-22T01:11:40.564Z,32.85
2018-02-22T01:14:13.113Z,29.25
2018-02-22T01:16:44.224Z,31.95
2018-02-22T01:19:24.871Z,34.13
2018-02-22T01:22:05.250Z,31.52
2018-02-22T01:24:52.265Z,30.65
2018-02-22T01:27:21.870Z,32.63
2018-02-22T01:29:52.139Z,31.70
2018-02-22T01:32:22.087Z,30.08
2018-02-22T01:34:51.440Z,31.85
2018-02-22T01:37:20.868Z,30.42
2018-02-22T01:39:50.337Z,30.45
2018-02-22T01:42:19.769Z,28.87
2018-02-22T01:44:49.140Z,32.70
2018-02-22T01:47:19.441Z,26.27
2018-02-22T01:49:48.926Z,31.48
2018-02-22T01:52:18.377Z,30.15
2018-02-22T01:54:48.495Z,31.23
2018-02-22T01:57:19.439Z,27.50
2018-02-22T01:59:48.899Z,29.30
2018-02-22T02:02:18.341Z,30.40
2018-02-22T02:04:48.525Z,32.00
2018-02-22T02:07:17.898Z,30.98
2018-02-22T02:09:47.312Z,30.58
2018-02-22T02:12:16.849Z,29.63
2018-02-22T02:14:47.514Z,30.23
2018-02-22T02:17:17.579Z,31.65
2018-02-22T02:19:49.156Z,32.55
2018-02-22T02:22:18.620Z,36.72
2018-02-22T02:24:48.126Z,28.85
2018-02-22T02:27:17.549Z,31.20
2018-02-22T02:29:47.373Z,28.90
2018-02-22T02:32:16.764Z,32.28
2018-02-22T02:34:47.694Z,30.80
2018-02-22T02:37:28.264Z,32.17
2018-02-22T02:40:03.602Z,29.40
2018-02-22T02:42:33.258Z,28.10
2018-02-22T02:45:02.730Z,30.15
2018-02-22T02:47:33.039Z,30.20
2018-02-22T02:50:03.197Z,32.38
2018-02-22T02:52:33.693Z,30.12
2018-02-22T02:55:03.155Z,29.95
2018-02-22T02:57:32.588Z,29.70
2018-02-22T03:00:02.108Z,24.20
2018-02-22T03:02:31.940Z,30.45
2018-02-22T03:05:01.904Z,31.10
2018-02-22T03:07:31.516Z,25.45
2018-02-22T03:10:01.006Z,28.27
2018-02-22T03:12:30.716Z,28.42
2018-02-22T03:15:00.621Z,28.12
2018-02-22T03:17:30.206Z,32.00
2018-02-22T03:20:10.754Z,27.90
2018-02-22T03:22:56.960Z,27.23
2018-02-22T03:25:26.649Z,26.98
2018-02-22T03:27:56.107Z,29.23
2018-02-22T03:30:25.502Z,26.40
2018-02-22T03:32:54.970Z,27.95
2018-02-22T03:35:24.486Z,28.23
2018-02-22T03:37:53.873Z,25.58
2018-02-22T03:40:23.438Z,27.00
2018-02-22T03:42:52.795Z,25.77
2018-02-22T03:45:22.227Z,25.80
2018-02-22T03:47:51.673Z,26.23
2018-02-22T03:50:21.331Z,27.33
2018-02-22T03:52:51.656Z,29.33
2018-02-22T03:55:21.980Z,27.60
2018-02-22T03:57:51.513Z,25.52
2018-02-22T04:00:21.463Z,28.25
2018-02-22T04:02:51.775Z,25.37
2018-02-22T04:05:21.180Z,25.55
2018-02-22T04:07:51.438Z,26.45
2018-02-22T04:10:22.963Z,24.85
2018-02-22T04:12:52.682Z,24.77
2018-02-22T04:15:22.073Z,25.00
2018-02-22T04:17:51.476Z,24.70
2018-02-22T04:20:21.032Z,23.77
2018-02-22T04:22:50.395Z,26.58
2018-02-22T04:25:20.562Z,24.73
2018-02-22T04:27:50.020Z,27.65
2018-02-22T04:30:19.396Z,23.08
2018-02-22T04:32:48.936Z,25.98
2018-02-22T04:35:18.666Z,23.60
2018-02-22T04:37:48.091Z,23.65
2018-02-22T04:40:17.519Z,24.30
2018-02-22T04:42:47.173Z,24.20
2018-02-22T04:45:16.560Z,25.33
2018-02-22T04:47:45.906Z,24.98
2018-02-22T04:50:15.391Z,23.50
2018-02-22T04:52:45.758Z,22.75
2018-02-22T04:55:15.604Z,25.90
2018-02-22T04:57:45.957Z,24.70
2018-02-22T05:00:16.246Z,25.25
2018-02-22T05:02:47.619Z,25.20
2018-02-22T05:05:17.720Z,24.15
2018-02-22T05:07:47.219Z,22.23
2018-02-22T05:10:16.758Z,24.30
2018-02-22T05:12:46.276Z,24.40
2018-02-22T05:15:15.639Z,25.23
2018-02-22T05:17:46.542Z,24.02
2018-02-22T05:20:15.935Z,24.70
2018-02-22T05:22:45.386Z,22.05
2018-02-22T05:25:14.780Z,23.60
2018-02-22T05:27:44.316Z,25.15
2018-02-22T05:30:14.513Z,25.92
2018-02-22T05:32:47.247Z,22.08
2018-02-22T05:35:20.980Z,23.40
2018-02-22T05:37:50.560Z,25.10
2018-02-22T05:40:20.059Z,19.17
2018-02-22T05:42:49.463Z,23.80
2018-02-22T05:45:19.239Z,23.67
2018-02-22T05:47:48.675Z,23.58
2018-02-22T05:50:18.164Z,21.20
2018-02-22T05:52:47.807Z,26.20
2018-02-22T05:55:17.350Z,22.45
2018-02-22T05:57:46.860Z,22.02
2018-02-22T06:00:18.768Z,21.10
2018-02-22T06:02:48.492Z,22.87
2018-02-22T06:05:18.030Z,23.75
2018-02-22T06:07:47.528Z,22.70
2018-02-22T06:10:17.092Z,22.48
2018-02-22T06:12:46.805Z,22.00
2018-02-22T06:15:18.585Z,22.83
2018-02-22T06:18:01.832Z,21.55
2018-02-22T06:20:32.573Z,20.42
2018-02-22T06:23:02.084Z,20.37
2018-02-22T06:25:31.538Z,20.90
2018-02-22T06:28:01.855Z,20.40
2018-02-22T06:30:31.699Z,20.35
2018-02-22T06:33:01.591Z,20.83
2018-02-22T06:35:31.817Z,21.95
2018-02-22T06:38:01.380Z,23.15
2018-02-22T06:40:31.711Z,26.30
2018-02-22T06:43:02.596Z,20.92
2018-02-22T06:45:32.188Z,20.98
2018-02-22T06:48:01.972Z,22.05
2018-02-22T06:50:31.820Z,20.10
2018-02-22T06:53:02.088Z,22.77
2018-02-22T06:55:32.478Z,18.83
2018-02-22T06:58:01.956Z,21.20
2018-02-22T07:00:31.493Z,18.65
2018-02-22T07:03:01.337Z,19.12
2018-02-22T07:05:30.991Z,18.73
2018-02-22T07:08:02.571Z,20.40
2018-02-22T07:10:33.919Z,18.90
2018-02-22T07:13:03.480Z,22.65
2018-02-22T07:15:32.869Z,21.10
2018-02-22T07:18:03.266Z,18.92
2018-02-22T07:20:33.770Z,16.40
2018-02-22T07:23:16.650Z,19.77
2018-02-22T07:25:39.158Z,18.10
2018-02-22T07:28:08.652Z,20.52
2018-02-22T07:30:38.054Z,17.80
2018-02-22T07:33:09.187Z,20.00
2018-02-22T07:35:39.730Z,21.52
2018-02-22T07:38:09.302Z,22.55
2018-02-22T07:40:38.769Z,19.85
2018-02-22T07:43:08.474Z,19.98
2018-02-22T07:45:38.170Z,19.73
2018-02-22T07:48:08.966Z,18.87
2018-02-22T07:50:40.249Z,18.45
2018-02-22T07:53:09.830Z,19.65
2018-02-22T07:55:39.470Z,19.67
2018-02-22T07:58:08.911Z,22.52
2018-02-22T08:00:39.726Z,21.02
2018-02-22T08:03:09.128Z,18.85
2018-02-22T08:05:40.222Z,21.27
2018-02-22T08:08:09.697Z,20.23
2018-02-22T08:10:39.281Z,22.45
2018-02-22T08:13:08.878Z,17.92
2018-02-22T08:15:38.447Z,18.08
2018-02-22T08:18:08.110Z,16.65
2018-02-22T08:20:37.621Z,16.15
2018-02-22T08:23:08.106Z,24.42
2018-02-22T08:25:41.165Z,14.70
2018-02-22T08:28:10.679Z,15.05
2018-02-22T08:30:41.148Z,18.10
2018-02-22T08:33:21.146Z,23.67
2018-02-22T08:35:51.114Z,19.37
2018-02-22T08:38:20.668Z,17.02
2018-02-22T08:40:55.866Z,18.65
2018-02-22T08:43:25.940Z,19.02
2018-02-22T08:45:59.644Z,19.58
2018-02-22T08:48:29.442Z,17.02
2018-02-22T08:51:05.842Z,16.73
2018-02-22T08:53:35.390Z,17.62
2018-02-22T08:56:05.173Z,17.02
2018-02-22T08:58:35.763Z,15.98
2018-02-22T09:01:09.513Z,13.50
2018-02-22T09:03:47.209Z,18.95
2018-02-22T09:06:21.784Z,15.98
2018-02-22T09:08:51.831Z,15.13
2018-02-22T09:11:21.509Z,12.07
2018-02-22T09:13:50.979Z,14.15
2018-02-22T09:16:20.371Z,13.23
2018-02-22T09:18:50.065Z,10.13
2018-02-22T09:21:19.642Z,12.05
2018-02-22T09:23:49.086Z,11.65
2018-02-22T09:26:18.946Z,12.95
2018-02-22T09:28:48.470Z,14.65
2018-02-22T09:31:18.025Z,16.10
2018-02-22T09:33:48.510Z,11.30
2018-02-22T09:36:17.947Z,12.13
2018-02-22T09:38:48.318Z,13.70
2018-02-22T09:41:17.875Z,16.17
2018-02-22T09:43:49.844Z,12.57
2018-02-22T09:46:19.351Z,13.98
2018-02-22T09:48:49.332Z,11.82
2018-02-22T09:51:19.729Z,14.30
2018-02-22T09:53:49.247Z,13.97
2018-02-22T09:56:18.695Z,10.87
2018-02-22T09:58:48.440Z,14.27
2018-02-22T10:01:18.085Z,13.03
2018-02-22T10:03:47.718Z,10.30
2018-02-22T10:06:17.808Z,16.80
2018-02-22T10:08:48.072Z,13.57
2018-02-22T10:11:17.866Z,10.53
2018-02-22T10:13:47.616Z,13.40
2018-02-22T10:16:17.117Z,13.43
2018-02-22T10:18:46.689Z,12.63
2018-02-22T10:21:17.201Z,9.00
2018-02-22T10:23:47.446Z,11.20
2018-02-22T10:26:17.470Z,13.30
2018-02-22T10:28:47.212Z,12.77
2018-02-22T10:31:17.117Z,12.27
2018-02-22T10:33:47.247Z,8.23
2018-02-22T10:36:18.543Z,13.60
2018-02-22T10:38:51.561Z,13.40
2018-02-22T10:41:30.838Z,16.67
2018-02-22T10:44:10.845Z,12.27
2018-02-22T10:46:41.611Z,14.93
2018-02-22T10:49:21.961Z,15.40
2018-02-22T10:51:52.509Z,14.10
2018-02-22T10:54:32.799Z,15.00
2018-02-22T10:57:16.063Z,12.67
2018-02-22T10:59:49.244Z,11.77
2018-02-22T11:02:54.986Z,12.97
2018-02-22T11:05:24.727Z,12.67
2018-02-22T11:07:58.790Z,12.53
2018-02-22T11:10:28.810Z,10.70
2018-02-22T11:12:59.833Z,13.10
2018-02-22T11:15:29.912Z,10.70
2018-02-22T11:18:00.017Z,12.43
2018-02-22T11:20:30.332Z,14.10
2018-02-22T11:23:01.891Z,12.37
2018-02-22T11:25:32.136Z,12.70
2018-02-22T11:28:02.317Z,12.40
2018-02-22T11:30:32.990Z,12.93
2018-02-22T11:33:03.005Z,12.90
2018-02-22T11:35:33.984Z,11.63
2018-02-22T11:38:04.981Z,12.53
2018-02-22T11:40:36.124Z,13.90
2018-02-22T11:43:11.150Z,14.10
2018-02-22T11:45:41.474Z,14.53
2018-02-22T11:48:23.453Z,13.43
2018-02-22T11:51:01.682Z,13.30
2018-02-22T11:53:31.699Z,7.87
2018-02-22T11:56:02.016Z,11.90
2018-02-22T11:58:32.409Z,10.43
2018-02-22T12:01:02.263Z,11.20
2018-02-22T12:03:32.708Z,12.60
2018-02-22T12:06:03.016Z,9.80
2018-02-22T12:08:34.059Z,10.20
2018-02-22T12:11:05.201Z,12.90
2018-02-22T12:13:35.576Z,11.27
2018-02-22T12:16:06.079Z,9.40
2018-02-22T12:18:37.360Z,10.40
2018-02-22T12:21:07.379Z,12.10
2018-02-22T12:23:38.334Z,10.90
2018-02-22T12:26:08.289Z,9.83
2018-02-22T12:28:42.133Z,11.37
2018-02-22T12:31:11.711Z,8.67
2018-02-22T12:33:45.039Z,11.40
2018-02-22T12:36:19.708Z,11.27
2018-02-22T12:38:49.472Z,10.47
2018-02-22T12:41:19.809Z,10.40
2018-02-22T12:43:52.591Z,10.63
2018-02-22T12:46:28.726Z,8.20
2018-02-22T12:49:11.485Z,9.07
2018-02-22T12:51:44.794Z,7.83
2018-02-22T12:54:16.531Z,13.67
2018-02-22T12:56:46.865Z,7.33
2018-02-22T12:59:16.914Z,8.73
2018-02-22T13:01:51.673Z,9.40
2018-02-22T13:04:30.361Z,8.40
2018-02-22T13:07:12.267Z,9.17
2018-02-22T13:09:52.519Z,8.23
2018-02-22T13:12:22.568Z,8.07
2018-02-22T13:14:55.130Z,9.10
2018-02-22T13:17:25.033Z,8.20
2018-02-22T13:20:00.096Z,7.70
2018-02-22T13:22:39.025Z,9.50
2018-02-22T13:25:09.204Z,7.23
2018-02-22T13:27:40.061Z,10.43
2018-02-22T13:30:15.754Z,8.20
2018-02-22T13:32:53.938Z,7.30
2018-02-22T13:35:23.815Z,25.73
2018-02-22T13:38:07.007Z,11.53
2018-02-22T13:40:37.294Z,9.23
2018-02-22T13:43:07.743Z,9.47
2018-02-22T13:45:39.072Z,8.30
2018-02-22T13:48:09.192Z,8.70
2018-02-22T13:51:09.672Z,8.87
2018-02-22T13:53:48.547Z,9.23
2018-02-22T13:56:40.031Z,8.97
2018-02-22T13:59:11.163Z,8.13
2018-02-22T14:02:24.765Z,8.20
2018-02-22T14:04:59.214Z,9.63
2018-02-22T14:07:29.971Z,8.50
2018-02-22T14:10:00.724Z,7.17
2018-02-22T14:12:31.009Z,7.93
2018-02-22T14:15:00.614Z,7.80
2018-02-22T14:17:30.727Z,8.23
2018-02-22T14:20:06.788Z,9.70
2018-02-22T14:22:47.198Z,8.90
2018-02-22T14:25:17.973Z,10.17
2018-02-22T14:27:51.055Z,10.23
2018-02-22T14:30:21.003Z,10.73
2018-02-22T14:32:50.822Z,10.67
2018-02-22T14:35:20.484Z,9.80
2018-02-22T14:37:50.062Z,13.13
2018-02-22T14:40:20.302Z,9.33
2018-02-22T14:42:54.251Z,11.60
2018-02-22T14:45:24.199Z,10.50
2018-02-22T14:47:54.596Z,10.87
2018-02-22T14:50:32.172Z,9.50
2018-02-22T14:53:09.188Z,10.13
2018-02-22T14:55:39.034Z,12.87
2018-02-22T14:58:15.415Z,11.23
2018-02-22T15:00:50.292Z,25.63
2018-02-22T15:03:20.018Z,12.53
2018-02-22T15:05:51.154Z,10.77
2018-02-22T15:08:34.286Z,11.17
2018-02-22T15:11:20.805Z,9.50
2018-02-22T15:14:04.302Z,7.47
2018-02-22T15:16:46.627Z,10.90
2018-02-22T15:19:22.048Z,10.10
2018-02-22T15:21:59.808Z,10.90
2018-02-22T15:24:33.641Z,9.43
2018-02-22T15:27:07.272Z,10.20
2018-02-22T15:29:39.715Z,11.90
2018-02-22T15:32:11.456Z,11.47
2018-02-22T15:34:42.461Z,11.43
2018-02-22T15:37:12.418Z,11.63
2018-02-22T15:39:42.468Z,9.03
2018-02-22T15:42:12.281Z,12.40
2018-02-22T15:44:42.962Z,11.70
2018-02-22T15:47:12.723Z,26.13
2018-02-22T15:49:53.254Z,14.33
2018-02-22T15:52:29.588Z,11.40
2018-02-22T15:55:04.004Z,9.30
2018-02-22T15:57:38.161Z,11.00
2018-02-22T16:00:07.780Z,10.77
2018-02-22T16:02:37.778Z,10.20
2018-02-22T16:05:07.686Z,13.10
2018-02-22T16:07:37.707Z,11.97
2018-02-22T16:10:08.711Z,11.10
2018-02-22T16:12:39.834Z,11.17
2018-02-22T16:15:12.512Z,11.83
2018-02-22T16:17:45.848Z,12.17
2018-02-22T16:20:22.350Z,12.77
2018-02-22T16:22:52.648Z,12.07
2018-02-22T16:25:22.781Z,11.83
2018-02-22T16:27:53.693Z,7.57
2018-02-22T16:30:59.136Z,8.20
2018-02-22T16:33:52.411Z,11.17
2018-02-22T16:36:38.524Z,12.67
2018-02-22T16:39:15.382Z,10.40
2018-02-22T16:41:45.295Z,12.73
2018-02-22T16:44:16.950Z,12.10
2018-02-22T16:46:51.029Z,11.57
2018-02-22T16:49:27.414Z,11.57
2018-02-22T16:52:10.924Z,9.80
2018-02-22T16:54:49.234Z,9.63
2018-02-22T16:57:19.462Z,15.30
2018-02-22T16:59:58.228Z,10.77
2018-02-22T17:02:37.698Z,14.50
2018-02-22T17:05:07.649Z,12.60
2018-02-22T17:07:41.887Z,12.67
2018-02-22T17:10:12.586Z,12.53
2018-02-22T17:12:42.267Z,12.77
2018-02-22T17:15:11.969Z,13.10
2018-02-22T17:17:51.344Z,9.80
2018-02-22T17:20:22.742Z,12.63
2018-02-22T17:22:53.968Z,10.50
2018-02-22T17:25:22.950Z,11.47
2018-02-22T17:28:04.196Z,12.57
2018-02-22T17:30:41.127Z,11.17
2018-02-22T17:33:14.407Z,11.77
2018-02-22T17:35:48.128Z,15.40
2018-02-22T17:38:19.215Z,11.50
2018-02-22T17:40:50.938Z,11.63
2018-02-22T17:43:25.629Z,13.20
2018-02-22T17:46:03.965Z,11.40
2018-02-22T17:48:48.741Z,11.40
2018-02-22T17:51:25.441Z,10.77
2018-02-22T17:53:56.752Z,13.00
2018-02-22T17:56:40.994Z,43.83
2018-02-22T17:59:21.683Z,13.03
2018-02-22T18:02:15.132Z,11.23
2018-02-22T18:04:59.695Z,14.37
2018-02-22T18:07:40.999Z,12.40
2018-02-22T18:10:25.056Z,11.80
2018-02-22T18:13:09.975Z,12.93
2018-02-22T18:15:56.269Z,54.07
2018-02-22T18:18:30.341Z,11.63
2018-02-22T18:21:25.292Z,11.43
2018-02-22T18:24:14.972Z,14.00
2018-02-22T18:27:05.094Z,16.17
2018-02-22T18:29:39.585Z,12.15
2018-02-22T18:32:16.842Z,13.37
2018-02-22T18:34:53.115Z,12.50
2018-02-22T18:37:30.808Z,12.40
2018-02-22T18:40:10.071Z,13.52
2018-02-22T18:42:45.952Z,12.40
2018-02-22T18:45:16.339Z,11.57
2018-02-22T18:47:48.848Z,14.50
2018-02-22T18:50:21.044Z,16.90
2018-02-22T18:52:55.523Z,14.05
2018-02-22T18:55:33.279Z,10.90
2018-02-22T18:58:06.182Z,12.18
2018-02-22T19:00:39.104Z,16.75
2018-02-22T19:03:14.989Z,16.35
2018-02-22T19:05:46.879Z,14.02
2018-02-22T19:08:17.472Z,25.05
2018-02-22T19:11:04.193Z,13.33
2018-02-22T19:13:48.596Z,11.20
2018-02-22T19:17:32.862Z,9.25
2018-02-22T19:20:03.469Z,9.63
2018-02-22T19:22:50.800Z,10.50
2018-02-22T19:25:25.058Z,12.30
2018-02-22T19:27:55.372Z,10.43
2018-02-22T19:30:33.720Z,13.48
2018-02-22T19:33:15.815Z,15.20
2018-02-22T19:35:47.425Z,19.17
2018-02-22T19:38:20.375Z,27.65
2018-02-22T19:40:56.479Z,20.60
2018-02-22T19:43:28.720Z,21.45
2018-02-22T19:46:06.196Z,22.75
2018-02-22T19:48:43.508Z,20.33
2018-02-22T19:51:14.370Z,29.67
2018-02-22T19:53:46.711Z,20.30
2018-02-22T19:56:24.239Z,24.25
2018-02-22T19:59:02.564Z,22.58
2018-02-22T20:01:38.468Z,24.15
2018-02-22T20:04:15.044Z,23.05
2018-02-22T20:06:51.611Z,39.35
2018-02-22T20:09:31.751Z,24.00
2018-02-22T20:12:05.755Z,38.90
2018-02-22T20:14:40.229Z,27.25
2018-02-22T20:17:16.351Z,25.50
2018-02-22T20:19:48.679Z,23.42
2018-02-22T20:22:22.058Z,23.23
2018-02-22T20:24:52.370Z,23.62
2018-02-22T20:27:24.326Z,22.30
2018-02-22T20:29:54.633Z,24.52
2018-02-22T20:32:32.492Z,22.30
2018-02-22T20:35:05.076Z,29.63
2018-02-22T20:37:36.280Z,24.85
2018-02-22T20:40:13.694Z,20.95
2018-02-22T20:42:44.610Z,20.85
2018-02-22T20:45:23.143Z,21.30
2018-02-22T20:59:32.303Z,23.27
2018-02-22T21:02:02.805Z,21.10
2018-02-22T21:04:32.822Z,24.98
2018-02-22T21:07:04.661Z,20.37
2018-02-22T21:09:35.692Z,26.48
2018-02-22T21:12:10.569Z,24.02
2018-02-22T21:14:51.979Z,26.08
2018-02-22T21:17:41.492Z,26.30
2018-02-22T21:20:11.634Z,21.92
2018-02-22T21:22:41.968Z,22.50
2018-02-22T21:25:12.914Z,24.12
2018-02-22T21:27:50.284Z,18.55
2018-02-22T21:30:22.263Z,19.20
2018-02-22T21:32:52.777Z,20.75
2018-02-22T21:35:27.992Z,21.27
2018-02-22T21:37:58.083Z,36.15
2018-02-22T21:40:31.465Z,19.08
2018-02-22T21:43:13.833Z,18.80
2018-02-22T21:45:56.612Z,20.88
2018-02-22T21:48:29.719Z,17.08
2018-02-22T21:51:10.551Z,22.00
2018-02-22T21:53:48.049Z,18.65
2018-02-22T21:56:18.936Z,19.80
2018-02-22T21:58:49.496Z,19.55
2018-02-22T22:01:38.092Z,24.55
2018-02-22T22:04:15.309Z,24.17
2018-02-22T22:06:47.115Z,18.80
2018-02-22T22:09:18.174Z,28.33
2018-02-22T22:11:54.939Z,19.87
2018-02-22T22:14:30.411Z,20.17
2018-02-22T22:17:02.807Z,20.30
2018-02-22T22:19:32.648Z,16.52
2018-02-22T22:22:04.420Z,27.02
2018-02-22T22:25:07.365Z,17.40
2018-02-22T22:27:38.983Z,15.90
2018-02-22T22:30:14.441Z,16.40
2018-02-22T22:32:47.742Z,14.13
2018-02-22T22:35:17.507Z,17.10
2018-02-22T22:37:47.133Z,19.92
2018-02-22T22:40:19.181Z,16.12
2018-02-22T22:42:49.736Z,16.23
2018-02-22T22:45:22.092Z,28.60
2018-02-22T22:48:12.477Z,17.25
2018-02-22T22:51:00.639Z,15.25
2018-02-22T22:53:30.636Z,13.38
2018-02-22T22:56:00.427Z,15.10
2018-02-22T22:58:29.940Z,14.65
2018-02-22T23:00:59.904Z,18.65
2018-02-22T23:03:46.586Z,15.70
2018-02-22T23:06:29.091Z,14.57
2018-02-22T23:08:58.708Z,13.65
2018-02-22T23:11:29.317Z,19.62
2018-02-22T23:13:59.827Z,14.10
2018-02-22T23:16:29.266Z,15.95
2018-02-22T23:18:58.851Z,14.82
2018-02-22T23:21:28.951Z,14.80
2018-02-22T23:23:58.933Z,16.90
2018-02-22T23:26:29.120Z,20.25
2018-02-22T23:29:00.237Z,11.90
2018-02-22T23:31:30.043Z,13.95
2018-02-22T23:34:07.822Z,17.58
2018-02-22T23:36:37.658Z,15.63
2018-02-22T23:39:07.874Z,16.65
2018-02-22T23:41:39.317Z,14.15
2018-02-22T23:44:09.086Z,12.50
2018-02-22T23:46:38.744Z,15.27
2018-02-22T23:49:08.718Z,15.13
2018-02-22T23:51:41.010Z,13.13
2018-02-22T23:54:11.253Z,18.60
2018-02-22T23:56:40.958Z,16.05
2018-02-22T23:59:21.259Z,57.65
